Aberdeen, SD (57401)

9:03 AM CDT on October 22, 2014 (GMT -0500)
Simmons | Change Station
CLOSE
Current Station
Personal Weather Station
Location: Aberdeen, SD
Elevation: 1312 ft
Nearby Weather Stations

Elev 1312 ft 45.45 °N, 98.49 °W | Updated 13 minutes ago

Partly Cloudy
Partly Cloudy
55.0 °F
Feels Like 55.0 °F
N
5.8
Wind Variable Wind from SSW

Today
High -- | Low -- °F
--% Chance of Precip.
Yesterday
High -- | Low -- °F
Precip. -- in
7:59 AM 6:36 PM
Waning Crescent, 2% visible
Pressure 29.84 in
Visibility 10.0 miles
Clouds Clear
Dew Point 47 °F
Humidity 74%
Rainfall 0.00 in
Snow Depth Not available.
UV 0 out of 12
Pollen 1.70 out of 12
Air Quality Not available.
Flu Activity Sporadic
METAR KABR 221353Z AUTO 17014KT 10SM CLR 13/07 A2985 RMK AO2 SLP105 T01330067

More Conditions Fewer Conditions

Pressure 29.84 in
Visibility 10.0 miles
Clouds Clear
Dew Point 47 °F
Humidity 74%
Rainfall 0.00 in
Snow Depth Not available.
UV 0 out of 12
Pollen 1.70 out of 12
Air Quality Not available.
Flu Activity Sporadic
METAR KABR 221353Z AUTO 17014KT 10SM CLR 13/07 A2985 RMK AO2 SLP105 T01330067

More Conditions Fewer Conditions

10-Day Weather Forecast

Almanac

Astronomy

Oct. 22, 2014 Rise Set
Actual Time 7:59 AM CDT 6:36 PM CDT
Civil Twilight 7:29 AM CDT 7:06 PM CDT
Nautical Twilight 6:54 AM CDT 7:41 PM CDT
Astronomical Twilight 6:20 AM CDT 8:15 PM CDT
Moon 6:38 AM CDT 6:06 PM CDT
Length of Visible Light 11h 37m
Length of Day
10h 36m
Tomorrow will be 3m 1s shorter.
Waning Crescent, 2% of the Moon is Illuminated
Today
Waning Crescent
Oct 23
New
Oct 30
First Quarter
Nov 6
Full
Nov 14
Last Quarter

Today's Extremes

State Highs State Lows

Community

WunderPhotos

Upload Photos

1,763,923 photos uploaded!

WunderBlogs® & News

Nearby

Snow Depth

Station Depth Elevation
North Rapid Creek 0 in 6130 ft
Blind Park 0 in 6890 ft

Earthquake Activity

City Distance Mag. Time & Date
No recent earthquake activity has been reported nearby.
Minimum magnitude displayed is 2.5.

Coastal Water Temperatures

Place Temperature
No Stations Reporting

Nearby Weather Stations